createdAt,value
2024-02-01T00:06:52.189Z,26.00
2024-02-01T00:17:16.919Z,26.50
2024-02-01T00:27:41.187Z,21.80
2024-02-01T00:38:05.083Z,20.90
2024-02-01T00:48:29.763Z,17.30
2024-02-01T00:58:53.852Z,20.10
2024-02-01T01:09:17.650Z,16.00
2024-02-01T01:19:42.625Z,16.70
2024-02-01T01:30:07.233Z,14.20
2024-02-01T01:40:31.691Z,14.70
2024-02-01T01:50:56.934Z,9.90
2024-02-01T02:01:21.649Z,16.70
2024-02-01T02:11:45.890Z,13.20
2024-02-01T02:22:13.909Z,13.70
2024-02-01T02:32:38.165Z,14.90
2024-02-01T02:43:02.575Z,14.00
2024-02-01T02:53:27.471Z,13.80
2024-02-01T03:03:51.620Z,13.60
2024-02-01T03:14:15.884Z,14.10
2024-02-01T03:24:41.071Z,12.20
2024-02-01T03:35:05.708Z,13.70
2024-02-01T03:45:35.610Z,11.30
2024-02-01T03:56:06.998Z,13.30
2024-02-01T04:06:38.050Z,12.40
2024-02-01T04:17:06.605Z,10.00
2024-02-01T04:27:34.193Z,15.90
2024-02-01T04:37:58.098Z,13.10
2024-02-01T04:48:28.903Z,15.60
2024-02-01T04:58:53.634Z,14.90
2024-02-01T05:09:33.724Z,12.70
2024-02-01T05:20:00.764Z,12.60
2024-02-01T05:30:31.865Z,13.70
2024-02-01T05:40:58.224Z,15.30
2024-02-01T05:51:22.856Z,12.20
2024-02-01T06:01:48.479Z,10.50
2024-02-01T06:12:12.632Z,12.80
2024-02-01T06:22:37.088Z,13.80
2024-02-01T06:33:03.368Z,13.80
2024-02-01T06:54:17.872Z,9.80
2024-02-01T07:04:52.677Z,9.20
2024-02-01T07:15:28.857Z,9.30
2024-02-01T07:26:18.824Z,6.00
2024-02-01T07:37:03.293Z,7.00
2024-02-01T07:47:46.509Z,6.00
2024-02-01T07:58:11.741Z,5.10
2024-02-01T08:08:36.850Z,6.30
2024-02-01T08:19:01.553Z,4.30
2024-02-01T08:29:38.052Z,6.60
2024-02-01T08:40:03.913Z,5.70
2024-02-01T08:50:30.870Z,3.40
2024-02-01T09:00:55.871Z,3.60
2024-02-01T09:11:20.835Z,4.30
2024-02-01T09:21:45.846Z,3.50
2024-02-01T09:32:12.253Z,2.00
2024-02-01T09:42:44.276Z,1.70
2024-02-01T09:53:09.840Z,1.60
2024-02-01T10:14:02.270Z,2.80
2024-02-01T10:24:28.478Z,1.70
2024-02-01T10:34:55.270Z,2.40
2024-02-01T10:45:21.928Z,1.30
2024-02-01T10:55:49.966Z,2.20
2024-02-01T11:06:14.085Z,3.60
2024-02-01T11:16:55.888Z,4.50
2024-02-01T11:27:22.376Z,3.20
2024-02-01T11:37:56.255Z,3.90
2024-02-01T11:48:24.589Z,2.40
2024-02-01T11:58:50.800Z,5.20
2024-02-01T12:09:16.179Z,1.30
2024-02-01T12:19:42.540Z,3.30
2024-02-01T12:30:33.447Z,11.10
2024-02-01T12:40:59.135Z,1.70
2024-02-01T12:51:29.081Z,5.60
2024-02-01T13:01:55.393Z,3.30
2024-02-01T13:12:25.498Z,3.50
2024-02-01T13:22:51.158Z,1.50
2024-02-01T13:33:15.856Z,1.80
2024-02-01T13:43:40.224Z,2.40
2024-02-01T13:54:05.305Z,1.80
2024-02-01T14:04:29.307Z,2.60
2024-02-01T14:14:54.888Z,2.00
2024-02-01T14:25:20.101Z,4.40
2024-02-01T14:35:44.269Z,1.60
2024-02-01T14:46:10.254Z,2.80
2024-02-01T14:56:37.117Z,2.00
2024-02-01T15:07:01.683Z,3.10
2024-02-01T15:17:25.856Z,3.40
2024-02-01T15:27:55.526Z,3.80
2024-02-01T15:38:23.383Z,2.90
2024-02-01T15:48:48.526Z,2.10
2024-02-01T15:59:13.385Z,3.40
2024-02-01T16:09:41.070Z,3.60
2024-02-01T16:20:07.016Z,3.90
2024-02-01T16:30:57.770Z,4.70
2024-02-01T16:41:31.299Z,4.30
2024-02-01T16:51:55.439Z,5.70
2024-02-01T17:02:46.849Z,3.50
2024-02-01T17:13:12.877Z,7.80
2024-02-01T17:23:39.955Z,3.90
2024-02-01T17:34:24.014Z,10.80
2024-02-01T17:44:47.772Z,9.20
2024-02-01T17:55:23.801Z,5.60
2024-02-01T18:05:49.012Z,10.90
2024-02-01T18:43:50.995Z,5.70
2024-02-01T18:54:16.256Z,16.00
2024-02-01T19:04:41.036Z,6.20
2024-02-01T19:15:10.052Z,15.20
2024-02-01T19:25:36.023Z,7.60
2024-02-01T19:36:00.498Z,9.40
2024-02-01T19:46:24.309Z,10.50
2024-02-01T19:56:49.493Z,10.20
2024-02-01T20:07:13.965Z,7.80
2024-02-01T20:17:38.907Z,13.80
2024-02-01T20:28:04.554Z,8.60
2024-02-01T20:38:28.804Z,6.70
2024-02-01T20:48:53.691Z,7.10
2024-02-01T21:00:05.452Z,11.10
2024-02-01T21:10:48.053Z,5.90
2024-02-01T21:21:12.280Z,18.60
2024-02-01T21:31:43.057Z,11.90
2024-02-01T21:42:07.381Z,10.70
2024-02-01T21:52:31.657Z,13.70
2024-02-01T22:02:58.285Z,7.50
2024-02-01T22:13:23.461Z,11.60
2024-02-01T22:23:47.677Z,10.30
2024-02-01T22:34:12.544Z,13.20
2024-02-01T22:44:38.049Z,7.20
2024-02-01T22:55:02.219Z,8.00
2024-02-01T23:05:27.914Z,11.60
2024-02-01T23:15:52.428Z,9.80
2024-02-01T23:26:17.627Z,10.30
2024-02-01T23:47:06.510Z,6.60
2024-02-01T23:57:30.530Z,14.50
